STAZIONE METEO DI BARCELLONA P.G. CENTRO
Dati campionati ogni minuto da Consolle Davis Vantage Pro 2
ed inviati alla rete mediante server Anemos WDS5 wview



Barcellona P.G. Centro more information Barcellona P.G. Centro


Golfo di Patti more information Golfo di Patti


Thunder radar more information blitzortung!


avvertimento per Pioggia  rain snow radar


altri nostri siti meteo:

Rischio IncendiRischio Incendi

Rete NOAA MADIS

Italia Meteo Network

PomeziameteoSito web di stazione meteo amica



Ci sono molteplici Allerte-Meteo   Clicca qui per maggiori informazioni

Report METAR

   
LICF - Messina, Italy
Distanza dalla stazione: NE 30 km
Dati ricevuti: 25-01-2021 18:55
DATI Obsoleti
Parzialmente nuvoloso  
Parzialmente nuvoloso  
   Vento: Variabile 1.9 km/h
Vento: Variabile 1.9 km/h
Temperatura: 13°C
P.to Rugiada: 3°C
Umidità: 51%
Barometro: 1009 hPa
Nuvole: Parzialmente nuvoloso
Visibilità: oltre 10 km
dettagli cloud: Parzialmente nuvoloso 1219.2 m
LICF 251755Z VRB01KT 9999 SCT040 13/03 Q1009 RMK BKN SCT200 QUK / QUL / VIS MAR 14 KM MON INVIS NC VIS MIN 9999
LICR - Reggio Calabria, Italy
Distanza dalla stazione: SE 39 km
Dati ricevuti: 25-01-2021 21:20
Sereno  
Sereno  
   Vento: Oriente 13 km/h
Vento: Oriente 13 km/h
Temperatura: 12°C
P.to Rugiada: 5°C
Umidità: 63%
Barometro: 1009 hPa
Nuvole: Sereno
Visibilità: oltre 10 km
dettagli cloud: Sereno
LICR 252020Z AUTO 10007KT 070V130 9999 NCD 12/05 Q1009
LICC - Catania/Fontanar, Italy
Distanza dalla stazione: S 77 km
Dati ricevuti: 25-01-2021 21:20
Parzialmente nuvoloso  
Parzialmente nuvoloso  
   Vento: W 14.8 km/h
Vento: W 14.8 km/h
Temperatura: 13°C
P.to Rugiada: 9°C
Umidità: 77%
Barometro: 1010 hPa
Nuvole: Parzialmente nuvoloso
Visibilità: oltre 10 km
dettagli cloud: Poche nuvole 1219.2 m,
Parzialmente nuvoloso 2743.2 m
LICC 252020Z 25008KT 9999 FEW040 SCT090 13/09 Q1010
LICZ - Sigonella (nas), Italy
Distanza dalla stazione: S 89 km
Dati ricevuti: 25-01-2021 17:55
DATI Obsoleti
Parzialmente nuvoloso  
Parzialmente nuvoloso  
   Vento: W 24.1 km/h
Vento: W 24.1 km/h
Temperatura: 14°C
P.to Rugiada: 9°C
Umidità: 72%
Barometro: 1012 hPa
Nuvole: Parzialmente nuvoloso
Visibilità: oltre 10 km
dettagli cloud: Parzialmente nuvoloso 2743.2 m
LICZ 251655Z 25013KT 9999 SCT090 14/09 Q1012 RMK BKN SCT200 VIS MIN 9999 WIND THR28 25012KT WIND THR10 24015KT A2991 BLU
LICA - Lamezia Terme, Italy
Distanza dalla stazione: NE 122 km
Dati ricevuti: 25-01-2021 21:20
Molto nuvoloso  
Molto nuvoloso  
   Vento: SW 24.1 km/h
Vento: SW 24.1 km/h
Temperatura: 15°C
P.to Rugiada: 8°C
Umidità: 63%
Barometro: 1007 hPa
Nuvole: Molto nuvoloso
Visibilità: oltre 10 km
dettagli cloud: Molto nuvoloso 1371.6 m
LICA 252020Z AUTO 23013KT 9999 BKN045/// 15/08 Q1007
LICB - Comiso, Italy
Distanza dalla stazione: S 138 km
Dati ricevuti: 25-01-2021 21:20
Molto nuvoloso  
Molto nuvoloso  
   Vento: W 14.8 km/h
Vento: W 14.8 km/h
Temperatura: 13°C
P.to Rugiada: 11°C
Umidità: 88%
Barometro: 1012 hPa
Nuvole: Molto nuvoloso
Visibilità: oltre 10 km
dettagli cloud: Molto nuvoloso 1036.3 m
LICB 252020Z AUTO 24008KT 9999 BKN034/// 13/11 Q1012

Script sviluppato da  Saratoga-weather.org Adattato per il modello da  Weerstation Leuven

Potete trovare le nostre info meteo anche a:

European Weather Network

Weather Underground

AWEKAS

Citizen Weather Observer Program (CWOP)

HAMweather, WeatherForYou, PWS Weather

Attrezzature usate:

Stazione meteo
Davis VP2

Programma gestore dati meteo
WVIEW

Server per i dati meteo
WDS5 Ecoblack

Davis VP2

WVIEW

WDS5 Ecoblack